sensor_id;sensor_type;location;lat;lon;timestamp;pressure;altitude;pressure_sealevel;temperature;humidity
36932;BME280;22847;42.654;23.370;2023-11-18T00:00:15;93925.63;;;8.23;81.90
36932;BME280;22847;42.654;23.370;2023-11-18T00:02:42;93796.06;;;7.41;81.66
36932;BME280;22847;42.654;23.370;2023-11-18T00:05:09;93954.94;;;8.33;81.02
36932;BME280;22847;42.654;23.370;2023-11-18T00:07:35;93965.69;;;8.21;81.65
36932;BME280;22847;42.654;23.370;2023-11-18T00:10:00;93909.50;;;7.84;81.80
36932;BME280;22847;42.654;23.370;2023-11-18T00:12:26;93942.47;;;8.19;81.61
36932;BME280;22847;42.654;23.370;2023-11-18T00:14:51;93806.13;;;7.44;80.57
36932;BME280;22847;42.654;23.370;2023-11-18T00:17:17;93923.16;;;8.04;78.36
36932;BME280;22847;42.654;23.370;2023-11-18T00:19:42;93976.44;;;8.08;78.88
36932;BME280;22847;42.654;23.370;2023-11-18T00:22:08;93836.31;;;6.91;80.24
36932;BME280;22847;42.654;23.370;2023-11-18T00:24:34;93985.63;;;7.75;81.46
36932;BME280;22847;42.654;23.370;2023-11-18T00:27:01;93968.97;;;7.78;80.99
36932;BME280;22847;42.654;23.370;2023-11-18T00:32:15;93963.66;;;7.97;80.65
36932;BME280;22847;42.654;23.370;2023-11-18T00:34:40;93950.44;;;7.90;80.45
36932;BME280;22847;42.654;23.370;2023-11-18T00:37:06;93968.69;;;7.98;81.39
36932;BME280;22847;42.654;23.370;2023-11-18T00:39:32;93974.72;;;7.72;81.23
36932;BME280;22847;42.654;23.370;2023-11-18T00:41:58;93950.88;;;7.86;80.81
36932;BME280;22847;42.654;23.370;2023-11-18T00:44:23;93936.25;;;7.67;80.52
36932;BME280;22847;42.654;23.370;2023-11-18T00:46:49;93843.63;;;7.32;79.35
36932;BME280;22847;42.654;23.370;2023-11-18T00:49:14;93952.34;;;7.88;79.53
36932;BME280;22847;42.654;23.370;2023-11-18T00:51:40;93949.94;;;7.59;81.24
36932;BME280;22847;42.654;23.370;2023-11-18T00:54:06;93965.69;;;7.76;80.30
36932;BME280;22847;42.654;23.370;2023-11-18T00:56:32;93975.91;;;8.04;79.56
36932;BME280;22847;42.654;23.370;2023-11-18T00:58:58;93998.19;;;7.97;79.50
36932;BME280;22847;42.654;23.370;2023-11-18T01:01:23;93806.13;;;6.99;79.83
36932;BME280;22847;42.654;23.370;2023-11-18T01:03:49;93945.22;;;7.73;79.53
36932;BME280;22847;42.654;23.370;2023-11-18T01:06:14;93947.91;;;7.53;80.54
36932;BME280;22847;42.654;23.370;2023-11-18T01:08:46;93980.25;;;7.59;80.35
36932;BME280;22847;42.654;23.370;2023-11-18T01:11:17;93970.31;;;7.54;80.23
36932;BME280;22847;42.654;23.370;2023-11-18T01:13:50;93979.63;;;7.75;80.29
36932;BME280;22847;42.654;23.370;2023-11-18T01:16:16;93847.91;;;6.87;78.82
36932;BME280;22847;42.654;23.370;2023-11-18T01:18:42;93987.69;;;7.72;79.39
36932;BME280;22847;42.654;23.370;2023-11-18T01:21:08;93995.91;;;7.67;79.24
36932;BME280;22847;42.654;23.370;2023-11-18T01:23:35;93967.78;;;7.35;79.53
36932;BME280;22847;42.654;23.370;2023-11-18T01:26:01;93611.56;;;4.90;81.38
36932;BME280;22847;42.654;23.370;2023-11-18T01:28:33;93586.94;;;4.86;80.74
36932;BME280;22847;42.654;23.370;2023-11-18T01:31:03;93987.34;;;7.57;80.67
36932;BME280;22847;42.654;23.370;2023-11-18T01:33:29;93968.47;;;7.37;81.52
36932;BME280;22847;42.654;23.370;2023-11-18T01:35:55;94015.84;;;7.67;79.90
36932;BME280;22847;42.654;23.370;2023-11-18T01:38:20;94033.16;;;7.76;79.49
36932;BME280;22847;42.654;23.370;2023-11-18T01:40:46;93991.94;;;7.73;78.70
36932;BME280;22847;42.654;23.370;2023-11-18T01:43:11;93889.06;;;6.99;81.02
36932;BME280;22847;42.654;23.370;2023-11-18T01:45:42;93994.47;;;7.55;80.51
36932;BME280;22847;42.654;23.370;2023-11-18T01:48:08;93977.25;;;7.54;79.80
36932;BME280;22847;42.654;23.370;2023-11-18T01:50:38;93954.47;;;7.48;79.06
36932;BME280;22847;42.654;23.370;2023-11-18T01:53:05;93826.19;;;6.70;78.26
36932;BME280;22847;42.654;23.370;2023-11-18T01:55:33;93952.09;;;7.37;79.01
36932;BME280;22847;42.654;23.370;2023-11-18T01:58:00;93952.75;;;7.02;78.56
36932;BME280;22847;42.654;23.370;2023-11-18T02:00:34;93983.13;;;7.19;79.76
36932;BME280;22847;42.654;23.370;2023-11-18T02:03:00;93960.13;;;7.06;80.29
36932;BME280;22847;42.654;23.370;2023-11-18T02:05:26;93973.59;;;7.10;80.51
36932;BME280;22847;42.654;23.370;2023-11-18T02:07:51;94000.16;;;7.31;79.90
36932;BME280;22847;42.654;23.370;2023-11-18T02:10:17;93959.28;;;7.06;78.34
36932;BME280;22847;42.654;23.370;2023-11-18T02:12:44;93846.22;;;6.12;79.29
36932;BME280;22847;42.654;23.370;2023-11-18T02:15:13;93830.94;;;6.09;78.69
36932;BME280;22847;42.654;23.370;2023-11-18T02:17:41;93972.06;;;6.70;79.91
36932;BME280;22847;42.654;23.370;2023-11-18T02:20:08;93987.41;;;7.01;78.72
36932;BME280;22847;42.654;23.370;2023-11-18T02:22:42;93816.78;;;5.84;78.27
36932;BME280;22847;42.654;23.370;2023-11-18T02:25:09;93987.00;;;6.96;77.59
36932;BME280;22847;42.654;23.370;2023-11-18T02:27:37;93901.63;;;6.19;77.86
36932;BME280;22847;42.654;23.370;2023-11-18T02:30:03;94000.25;;;6.83;76.96
36932;BME280;22847;42.654;23.370;2023-11-18T02:32:46;93840.47;;;5.79;77.22
36932;BME280;22847;42.654;23.370;2023-11-18T02:35:29;93721.00;;;5.18;75.75
36932;BME280;22847;42.654;23.370;2023-11-18T02:37:55;93974.47;;;6.82;76.50
36932;BME280;22847;42.654;23.370;2023-11-18T02:40:29;93966.59;;;6.64;74.58
36932;BME280;22847;42.654;23.370;2023-11-18T02:42:58;93871.41;;;6.10;74.01
36932;BME280;22847;42.654;23.370;2023-11-18T02:45:25;93995.91;;;6.74;74.39
36932;BME280;22847;42.654;23.370;2023-11-18T02:47:52;93984.19;;;6.70;74.63
36932;BME280;22847;42.654;23.370;2023-11-18T02:50:25;93817.88;;;5.62;74.27
36932;BME280;22847;42.654;23.370;2023-11-18T02:52:52;93996.16;;;6.71;75.26
36932;BME280;22847;42.654;23.370;2023-11-18T02:55:18;93867.88;;;5.92;73.91
36932;BME280;22847;42.654;23.370;2023-11-18T02:57:43;93976.44;;;6.41;73.92
36932;BME280;22847;42.654;23.370;2023-11-18T03:00:09;94022.09;;;6.61;73.79
36932;BME280;22847;42.654;23.370;2023-11-18T03:02:37;93992.50;;;6.54;74.94
36932;BME280;22847;42.654;23.370;2023-11-18T03:05:06;94010.22;;;6.49;74.62
36932;BME280;22847;42.654;23.370;2023-11-18T03:07:32;94019.75;;;6.58;74.02
36932;BME280;22847;42.654;23.370;2023-11-18T03:09:58;93975.88;;;6.28;75.50
36932;BME280;22847;42.654;23.370;2023-11-18T03:12:25;94007.22;;;6.44;73.99
36932;BME280;22847;42.654;23.370;2023-11-18T03:14:54;93981.19;;;6.17;74.97
36932;BME280;22847;42.654;23.370;2023-11-18T03:17:19;94026.97;;;6.36;73.45
36932;BME280;22847;42.654;23.370;2023-11-18T03:19:45;93992.75;;;5.94;74.64
36932;BME280;22847;42.654;23.370;2023-11-18T03:22:11;94047.84;;;6.34;74.01
36932;BME280;22847;42.654;23.370;2023-11-18T03:24:38;94032.41;;;6.13;74.91
36932;BME280;22847;42.654;23.370;2023-11-18T03:27:04;94064.75;;;6.38;74.96
36932;BME280;22847;42.654;23.370;2023-11-18T03:29:29;94021.03;;;5.95;73.79
36932;BME280;22847;42.654;23.370;2023-11-18T03:31:55;93949.97;;;5.40;74.11
36932;BME280;22847;42.654;23.370;2023-11-18T03:34:20;93889.09;;;5.17;73.18
36932;BME280;22847;42.654;23.370;2023-11-18T03:36:46;93920.94;;;5.17;73.48
36932;BME280;22847;42.654;23.370;2023-11-18T03:39:12;94060.75;;;6.15;73.44
36932;BME280;22847;42.654;23.370;2023-11-18T03:41:39;94057.88;;;6.18;73.64
36932;BME280;22847;42.654;23.370;2023-11-18T03:44:04;93935.56;;;5.47;72.97
36932;BME280;22847;42.654;23.370;2023-11-18T03:46:30;94056.38;;;6.15;72.38
36932;BME280;22847;42.654;23.370;2023-11-18T03:49:02;94052.25;;;5.94;72.80
36932;BME280;22847;42.654;23.370;2023-11-18T03:51:28;93916.31;;;5.21;72.95
36932;BME280;22847;42.654;23.370;2023-11-18T03:53:53;94067.63;;;5.95;72.37
36932;BME280;22847;42.654;23.370;2023-11-18T03:56:19;94063.97;;;5.98;72.84
36932;BME280;22847;42.654;23.370;2023-11-18T03:58:45;94064.94;;;6.06;71.55
36932;BME280;22847;42.654;23.370;2023-11-18T04:01:20;94055.59;;;5.84;72.21
36932;BME280;22847;42.654;23.370;2023-11-18T04:03:45;94076.41;;;5.53;72.00
36932;BME280;22847;42.654;23.370;2023-11-18T04:06:11;93945.56;;;5.01;71.68
36932;BME280;22847;42.654;23.370;2023-11-18T04:08:36;94107.00;;;5.78;72.90
36932;BME280;22847;42.654;23.370;2023-11-18T04:11:02;93943.91;;;4.90;71.88
36932;BME280;22847;42.654;23.370;2023-11-18T04:13:27;94030.56;;;5.24;71.72
36932;BME280;22847;42.654;23.370;2023-11-18T04:15:53;94082.94;;;5.26;72.64
36932;BME280;22847;42.654;23.370;2023-11-18T04:18:18;94091.13;;;5.52;72.71
36932;BME280;22847;42.654;23.370;2023-11-18T04:20:44;94089.34;;;5.32;72.16
36932;BME280;22847;42.654;23.370;2023-11-18T04:23:09;94094.72;;;5.40;72.22
36932;BME280;22847;42.654;23.370;2023-11-18T04:25:37;94001.03;;;4.97;71.66
36932;BME280;22847;42.654;23.370;2023-11-18T04:28:02;93885.22;;;4.20;72.03
36932;BME280;22847;42.654;23.370;2023-11-18T04:30:29;93926.16;;;4.55;72.00
36932;BME280;22847;42.654;23.370;2023-11-18T04:32:54;94091.41;;;5.08;72.34
36932;BME280;22847;42.654;23.370;2023-11-18T04:35:20;94095.56;;;5.20;72.70
36932;BME280;22847;42.654;23.370;2023-11-18T04:37:47;93915.13;;;4.23;72.71
36932;BME280;22847;42.654;23.370;2023-11-18T04:40:13;94091.88;;;5.22;72.45
36932;BME280;22847;42.654;23.370;2023-11-18T04:42:39;94097.88;;;5.23;72.48
36932;BME280;22847;42.654;23.370;2023-11-18T04:45:05;94100.69;;;4.78;72.79
36932;BME280;22847;42.654;23.370;2023-11-18T04:47:31;94108.28;;;5.12;73.19
36932;BME280;22847;42.654;23.370;2023-11-18T04:49:56;94101.41;;;5.22;72.37
36932;BME280;22847;42.654;23.370;2023-11-18T04:52:22;94109.22;;;5.31;71.86
36932;BME280;22847;42.654;23.370;2023-11-18T04:54:47;94037.75;;;5.00;72.78
36932;BME280;22847;42.654;23.370;2023-11-18T04:57:13;94110.38;;;5.18;72.46
36932;BME280;22847;42.654;23.370;2023-11-18T04:59:39;94124.41;;;5.25;71.88
36932;BME280;22847;42.654;23.370;2023-11-18T05:02:04;94079.22;;;5.19;71.19
36932;BME280;22847;42.654;23.370;2023-11-18T05:04:30;94066.44;;;4.97;71.67
36932;BME280;22847;42.654;23.370;2023-11-18T05:06:55;94089.00;;;5.16;71.54
36932;BME280;22847;42.654;23.370;2023-11-18T05:09:20;94089.19;;;5.03;71.67
36932;BME280;22847;42.654;23.370;2023-11-18T05:11:46;93943.09;;;4.07;71.38
36932;BME280;22847;42.654;23.370;2023-11-18T05:14:12;94083.41;;;4.58;72.54
36932;BME280;22847;42.654;23.370;2023-11-18T05:16:37;94108.59;;;5.18;71.85
36932;BME280;22847;42.654;23.370;2023-11-18T05:19:04;93973.09;;;4.39;71.65
36932;BME280;22847;42.654;23.370;2023-11-18T05:21:29;93939.09;;;4.34;70.69
36932;BME280;22847;42.654;23.370;2023-11-18T05:23:55;93970.06;;;4.55;71.50
36932;BME280;22847;42.654;23.370;2023-11-18T05:26:20;94058.28;;;5.22;71.16
36932;BME280;22847;42.654;23.370;2023-11-18T05:28:46;94094.41;;;5.33;70.94
36932;BME280;22847;42.654;23.370;2023-11-18T05:31:11;94060.94;;;5.11;70.61
36932;BME280;22847;42.654;23.370;2023-11-18T05:33:37;93893.66;;;4.22;69.88
36932;BME280;22847;42.654;23.370;2023-11-18T05:36:03;94083.25;;;5.33;69.92
36932;BME280;22847;42.654;23.370;2023-11-18T05:38:30;94108.53;;;5.29;70.47
36932;BME280;22847;42.654;23.370;2023-11-18T05:41:00;94107.06;;;5.36;69.83
36932;BME280;22847;42.654;23.370;2023-11-18T05:43:32;94069.22;;;5.26;70.03
36932;BME280;22847;42.654;23.370;2023-11-18T05:46:07;93910.06;;;4.21;69.97
36932;BME280;22847;42.654;23.370;2023-11-18T05:48:50;94086.97;;;5.40;69.98
36932;BME280;22847;42.654;23.370;2023-11-18T05:51:22;94043.69;;;5.12;69.53
36932;BME280;22847;42.654;23.370;2023-11-18T05:53:48;94074.75;;;5.21;69.87
36932;BME280;22847;42.654;23.370;2023-11-18T05:56:14;93862.94;;;3.98;70.04
36932;BME280;22847;42.654;23.370;2023-11-18T05:58:42;94048.72;;;4.92;69.92
36932;BME280;22847;42.654;23.370;2023-11-18T06:01:11;94062.03;;;5.09;70.08
36932;BME280;22847;42.654;23.370;2023-11-18T06:03:41;94040.91;;;4.83;71.00
36932;BME280;22847;42.654;23.370;2023-11-18T06:06:11;94061.28;;;5.18;70.72
36932;BME280;22847;42.654;23.370;2023-11-18T06:08:38;94047.72;;;5.05;73.61
36932;BME280;22847;42.654;23.370;2023-11-18T06:11:10;94063.94;;;5.37;71.57
36932;BME280;22847;42.654;23.370;2023-11-18T06:13:49;94069.38;;;5.34;69.40
36932;BME280;22847;42.654;23.370;2023-11-18T06:16:17;94038.97;;;4.96;69.10
36932;BME280;22847;42.654;23.370;2023-11-18T06:18:46;94087.91;;;5.18;70.35
36932;BME280;22847;42.654;23.370;2023-11-18T06:21:19;94086.41;;;5.16;70.43
36932;BME280;22847;42.654;23.370;2023-11-18T06:23:46;94098.41;;;5.17;71.75
36932;BME280;22847;42.654;23.370;2023-11-18T06:26:13;93981.94;;;4.26;70.73
36932;BME280;22847;42.654;23.370;2023-11-18T06:28:40;94119.25;;;5.25;70.66
36932;BME280;22847;42.654;23.370;2023-11-18T06:31:06;94075.97;;;5.17;70.18
36932;BME280;22847;42.654;23.370;2023-11-18T06:33:44;94050.25;;;5.16;70.25
36932;BME280;22847;42.654;23.370;2023-11-18T06:36:19;94132.97;;;5.46;69.86
36932;BME280;22847;42.654;23.370;2023-11-18T06:38:52;94093.41;;;5.25;69.78
36932;BME280;22847;42.654;23.370;2023-11-18T06:41:22;94064.59;;;5.29;70.98
36932;BME280;22847;42.654;23.370;2023-11-18T06:44:02;94103.34;;;5.50;69.47
36932;BME280;22847;42.654;23.370;2023-11-18T06:46:34;94098.16;;;5.50;69.97
36932;BME280;22847;42.654;23.370;2023-11-18T06:49:02;93921.78;;;4.46;70.36
36932;BME280;22847;42.654;23.370;2023-11-18T06:51:33;94082.81;;;5.28;69.08
36932;BME280;22847;42.654;23.370;2023-11-18T06:54:04;94006.78;;;4.59;69.29
36932;BME280;22847;42.654;23.370;2023-11-18T06:56:35;94114.78;;;5.48;69.68
36932;BME280;22847;42.654;23.370;2023-11-18T06:59:06;94102.72;;;5.58;69.41
36932;BME280;22847;42.654;23.370;2023-11-18T07:01:33;93969.88;;;4.47;69.76
36932;BME280;22847;42.654;23.370;2023-11-18T07:03:58;94116.84;;;5.54;69.55
36932;BME280;22847;42.654;23.370;2023-11-18T07:06:24;94148.50;;;5.67;69.08
36932;BME280;22847;42.654;23.370;2023-11-18T07:08:52;94100.06;;;5.48;68.16
36932;BME280;22847;42.654;23.370;2023-11-18T07:11:18;94124.50;;;5.65;69.02
36932;BME280;22847;42.654;23.370;2023-11-18T07:13:46;94137.06;;;5.69;67.16
36932;BME280;22847;42.654;23.370;2023-11-18T07:16:12;94096.22;;;5.43;67.74
36932;BME280;22847;42.654;23.370;2023-11-18T07:18:40;93979.75;;;4.83;69.41
36932;BME280;22847;42.654;23.370;2023-11-18T07:21:05;93860.72;;;4.15;66.48
36932;BME280;22847;42.654;23.370;2023-11-18T07:23:32;94137.06;;;5.69;69.05
36932;BME280;22847;42.654;23.370;2023-11-18T07:25:57;93965.41;;;4.70;69.36
36932;BME280;22847;42.654;23.370;2023-11-18T07:28:23;93947.19;;;4.50;67.84
36932;BME280;22847;42.654;23.370;2023-11-18T07:30:49;94131.34;;;5.66;69.44
36932;BME280;22847;42.654;23.370;2023-11-18T07:33:15;94119.22;;;5.66;69.25
36932;BME280;22847;42.654;23.370;2023-11-18T07:35:41;94120.88;;;5.47;68.55
36932;BME280;22847;42.654;23.370;2023-11-18T07:38:07;94090.50;;;5.18;68.37
36932;BME280;22847;42.654;23.370;2023-11-18T07:40:33;94098.88;;;5.11;68.81
36932;BME280;22847;42.654;23.370;2023-11-18T07:42:59;94100.59;;;5.21;68.87
36932;BME280;22847;42.654;23.370;2023-11-18T07:45:27;94114.72;;;5.17;68.43
36932;BME280;22847;42.654;23.370;2023-11-18T07:47:54;93984.72;;;4.34;68.43
36932;BME280;22847;42.654;23.370;2023-11-18T07:50:20;93967.13;;;4.28;68.83
36932;BME280;22847;42.654;23.370;2023-11-18T07:52:49;94118.75;;;5.31;68.54
36932;BME280;22847;42.654;23.370;2023-11-18T07:55:15;93965.63;;;4.04;69.14
36932;BME280;22847;42.654;23.370;2023-11-18T07:57:41;94127.06;;;5.34;69.31
36932;BME280;22847;42.654;23.370;2023-11-18T08:00:08;94089.13;;;5.14;70.00
36932;BME280;22847;42.654;23.370;2023-11-18T08:02:38;94146.09;;;5.54;68.63
36932;BME280;22847;42.654;23.370;2023-11-18T08:05:03;94129.84;;;5.73;69.79
36932;BME280;22847;42.654;23.370;2023-11-18T08:07:35;94139.38;;;5.72;68.06
36932;BME280;22847;42.654;23.370;2023-11-18T08:10:05;94162.75;;;5.61;67.93
36932;BME280;22847;42.654;23.370;2023-11-18T08:12:31;94140.13;;;5.54;67.98
36932;BME280;22847;42.654;23.370;2023-11-18T08:14:57;94111.19;;;5.39;66.71
36932;BME280;22847;42.654;23.370;2023-11-18T08:17:24;94160.44;;;5.58;68.51
36932;BME280;22847;42.654;23.370;2023-11-18T08:19:51;94130.25;;;5.27;67.16
36932;BME280;22847;42.654;23.370;2023-11-18T08:22:17;94112.75;;;5.10;67.06
36932;BME280;22847;42.654;23.370;2023-11-18T08:24:44;94140.44;;;5.39;68.78
36932;BME280;22847;42.654;23.370;2023-11-18T08:27:10;93980.03;;;4.28;67.20
36932;BME280;22847;42.654;23.370;2023-11-18T08:29:36;94113.72;;;5.09;68.60
36932;BME280;22847;42.654;23.370;2023-11-18T08:32:04;93948.66;;;4.23;67.08
36932;BME280;22847;42.654;23.370;2023-11-18T08:34:30;94139.44;;;5.31;67.13
36932;BME280;22847;42.654;23.370;2023-11-18T08:36:58;94114.09;;;5.25;68.10
36932;BME280;22847;42.654;23.370;2023-11-18T08:39:25;94123.19;;;5.50;69.30
36932;BME280;22847;42.654;23.370;2023-11-18T08:41:51;94148.19;;;5.39;67.39
36932;BME280;22847;42.654;23.370;2023-11-18T08:44:17;94030.97;;;4.78;66.82
36932;BME280;22847;42.654;23.370;2023-11-18T08:46:43;94120.38;;;5.32;67.58
36932;BME280;22847;42.654;23.370;2023-11-18T08:49:09;94128.13;;;5.32;68.13
36932;BME280;22847;42.654;23.370;2023-11-18T08:51:39;94003.03;;;4.31;69.43
36932;BME280;22847;42.654;23.370;2023-11-18T08:54:07;94130.16;;;5.28;73.35
36932;BME280;22847;42.654;23.370;2023-11-18T08:56:53;94152.41;;;5.40;74.33
36932;BME280;22847;42.654;23.370;2023-11-18T08:59:20;94016.47;;;4.66;68.17
36932;BME280;22847;42.654;23.370;2023-11-18T09:01:51;94129.78;;;5.54;74.97
36932;BME280;22847;42.654;23.370;2023-11-18T09:04:22;94167.59;;;5.55;66.80
36932;BME280;22847;42.654;23.370;2023-11-18T09:06:49;94081.63;;;4.90;67.63
36932;BME280;22847;42.654;23.370;2023-11-18T09:09:14;94130.91;;;5.19;67.61
36932;BME280;22847;42.654;23.370;2023-11-18T09:11:41;94160.97;;;5.41;72.96
36932;BME280;22847;42.654;23.370;2023-11-18T09:14:07;94184.91;;;5.22;70.20
36932;BME280;22847;42.654;23.370;2023-11-18T09:16:33;94142.31;;;5.58;74.86
36932;BME280;22847;42.654;23.370;2023-11-18T09:19:04;94015.59;;;4.98;73.19
36932;BME280;22847;42.654;23.370;2023-11-18T09:21:31;94135.72;;;5.96;73.59
36932;BME280;22847;42.654;23.370;2023-11-18T09:24:01;94131.56;;;5.83;69.74
36932;BME280;22847;42.654;23.370;2023-11-18T09:26:30;94141.47;;;6.09;71.72
36932;BME280;22847;42.654;23.370;2023-11-18T09:28:55;94009.44;;;5.40;71.03
36932;BME280;22847;42.654;23.370;2023-11-18T09:31:22;94163.88;;;6.19;65.82
36932;BME280;22847;42.654;23.370;2023-11-18T09:33:48;94114.88;;;5.67;65.63
36932;BME280;22847;42.654;23.370;2023-11-18T09:36:22;94121.66;;;5.68;68.17
36932;BME280;22847;42.654;23.370;2023-11-18T09:38:48;94104.69;;;5.45;67.42
36932;BME280;22847;42.654;23.370;2023-11-18T09:41:14;94084.44;;;5.29;68.72
36932;BME280;22847;42.654;23.370;2023-11-18T09:43:45;94131.31;;;5.35;68.96
36932;BME280;22847;42.654;23.370;2023-11-18T09:46:15;94075.38;;;5.14;68.84
36932;BME280;22847;42.654;23.370;2023-11-18T09:48:45;94142.31;;;5.58;71.73
36932;BME280;22847;42.654;23.370;2023-11-18T09:51:22;94114.06;;;5.66;67.99
36932;BME280;22847;42.654;23.370;2023-11-18T09:53:52;93967.72;;;4.73;68.19
36932;BME280;22847;42.654;23.370;2023-11-18T09:59:31;94125.22;;;5.67;70.43
36932;BME280;22847;42.654;23.370;2023-11-18T10:02:02;94114.91;;;5.76;71.39
36932;BME280;22847;42.654;23.370;2023-11-18T10:04:30;93996.50;;;4.89;66.54
36932;BME280;22847;42.654;23.370;2023-11-18T10:06:56;94128.03;;;5.84;70.03
36932;BME280;22847;42.654;23.370;2023-11-18T10:09:28;94122.84;;;5.84;68.98
36932;BME280;22847;42.654;23.370;2023-11-18T10:11:55;94137.59;;;5.43;69.43
36932;BME280;22847;42.654;23.370;2023-11-18T10:14:32;94112.19;;;5.78;70.86
36932;BME280;22847;42.654;23.370;2023-11-18T10:16:57;94115.78;;;5.87;67.29
36932;BME280;22847;42.654;23.370;2023-11-18T10:19:22;94140.34;;;5.71;66.06
36932;BME280;22847;42.654;23.370;2023-11-18T10:21:51;94115.94;;;5.64;68.26
36932;BME280;22847;42.654;23.370;2023-11-18T10:24:16;94137.63;;;5.94;67.80
36932;BME280;22847;42.654;23.370;2023-11-18T10:26:55;94132.84;;;5.89;67.86
36932;BME280;22847;42.654;23.370;2023-11-18T10:29:24;94128.50;;;5.99;67.83
36932;BME280;22847;42.654;23.370;2023-11-18T10:32:05;94131.38;;;5.96;72.04
36932;BME280;22847;42.654;23.370;2023-11-18T10:34:35;94132.50;;;6.03;70.90
36932;BME280;22847;42.654;23.370;2023-11-18T10:37:03;94130.88;;;6.12;65.21
36932;BME280;22847;42.654;23.370;2023-11-18T10:39:29;94102.56;;;6.20;69.18
36932;BME280;22847;42.654;23.370;2023-11-18T10:42:01;94083.63;;;6.19;66.85
36932;BME280;22847;42.654;23.370;2023-11-18T10:44:27;94112.16;;;5.89;64.72
36932;BME280;22847;42.654;23.370;2023-11-18T10:46:53;94073.06;;;5.92;67.59
36932;BME280;22847;42.654;23.370;2023-11-18T10:49:22;94084.19;;;6.23;65.90
36932;BME280;22847;42.654;23.370;2023-11-18T10:51:50;94082.94;;;6.17;65.43
36932;BME280;22847;42.654;23.370;2023-11-18T10:54:16;94088.84;;;6.29;67.79
36932;BME280;22847;42.654;23.370;2023-11-18T10:56:50;94093.28;;;6.08;69.15
36932;BME280;22847;42.654;23.370;2023-11-18T10:59:17;94055.16;;;6.19;67.34
36932;BME280;22847;42.654;23.370;2023-11-18T11:01:45;94062.41;;;6.35;68.65
36932;BME280;22847;42.654;23.370;2023-11-18T11:04:14;94043.34;;;6.46;64.48
36932;BME280;22847;42.654;23.370;2023-11-18T11:06:50;94029.31;;;6.48;65.83
36932;BME280;22847;42.654;23.370;2023-11-18T11:09:26;94073.22;;;6.69;67.68
36932;BME280;22847;42.654;23.370;2023-11-18T11:12:07;94031.91;;;6.39;67.18
36932;BME280;22847;42.654;23.370;2023-11-18T11:14:44;94052.88;;;6.55;65.71
36932;BME280;22847;42.654;23.370;2023-11-18T11:17:13;93931.31;;;5.96;65.85
36932;BME280;22847;42.654;23.370;2023-11-18T11:22:38;94083.84;;;6.95;66.52
36932;BME280;22847;42.654;23.370;2023-11-18T11:25:33;94077.28;;;6.81;60.46
36932;BME280;22847;42.654;23.370;2023-11-18T11:28:10;94092.41;;;6.66;62.20
36932;BME280;22847;42.654;23.370;2023-11-18T11:30:45;94093.91;;;6.59;63.82
36932;BME280;22847;42.654;23.370;2023-11-18T11:33:17;94065.00;;;6.25;63.65
36932;BME280;22847;42.654;23.370;2023-11-18T11:35:54;94046.91;;;5.95;66.35
36932;BME280;22847;42.654;23.370;2023-11-18T11:38:24;94089.66;;;6.30;66.44
36932;BME280;22847;42.654;23.370;2023-11-18T11:40:54;94014.19;;;5.84;66.88
36932;BME280;22847;42.654;23.370;2023-11-18T11:43:20;94100.22;;;6.17;66.64
36932;BME280;22847;42.654;23.370;2023-11-18T11:45:53;94075.44;;;6.14;65.47
36932;BME280;22847;42.654;23.370;2023-11-18T11:48:22;93891.69;;;4.86;64.78
36932;BME280;22847;42.654;23.370;2023-11-18T11:51:27;94099.03;;;6.21;64.19
36932;BME280;22847;42.654;23.370;2023-11-18T11:54:06;94057.53;;;5.92;65.88
36932;BME280;22847;42.654;23.370;2023-11-18T11:56:47;94100.44;;;5.95;64.23
36932;BME280;22847;42.654;23.370;2023-11-18T11:59:34;94097.22;;;6.02;65.52
36932;BME280;22847;42.654;23.370;2023-11-18T12:02:01;94065.25;;;5.82;64.46
36932;BME280;22847;42.654;23.370;2023-11-18T12:04:33;94077.06;;;5.75;67.70
36932;BME280;22847;42.654;23.370;2023-11-18T12:07:00;93886.28;;;4.38;63.98
36932;BME280;22847;42.654;23.370;2023-11-18T12:09:31;94087.38;;;5.96;64.75
36932;BME280;22847;42.654;23.370;2023-11-18T12:12:03;93988.44;;;5.33;65.93
36932;BME280;22847;42.654;23.370;2023-11-18T12:14:30;94103.38;;;6.11;67.83
36932;BME280;22847;42.654;23.370;2023-11-18T12:17:07;93965.09;;;5.45;64.25
36932;BME280;22847;42.654;23.370;2023-11-18T12:19:38;94093.06;;;6.30;67.14
36932;BME280;22847;42.654;23.370;2023-11-18T12:22:20;94118.50;;;6.15;63.74
36932;BME280;22847;42.654;23.370;2023-11-18T12:27:45;94118.00;;;5.91;65.63
36932;BME280;22847;42.654;23.370;2023-11-18T12:33:04;94117.16;;;6.21;68.64
36932;BME280;22847;42.654;23.370;2023-11-18T12:38:26;93990.94;;;5.45;67.02
36932;BME280;22847;42.654;23.370;2023-11-18T12:41:01;94098.44;;;5.98;65.40
36932;BME280;22847;42.654;23.370;2023-11-18T12:49:15;94091.72;;;5.96;66.17
36932;BME280;22847;42.654;23.370;2023-11-18T12:51:45;94103.91;;;6.14;67.32
36932;BME280;22847;42.654;23.370;2023-11-18T12:54:11;94110.13;;;6.42;66.04
36932;BME280;22847;42.654;23.370;2023-11-18T12:56:40;94104.53;;;6.37;68.20
36932;BME280;22847;42.654;23.370;2023-11-18T12:59:09;94118.97;;;6.49;68.07
36932;BME280;22847;42.654;23.370;2023-11-18T13:01:35;94059.81;;;6.35;67.42
36932;BME280;22847;42.654;23.370;2023-11-18T13:04:02;94124.31;;;6.48;64.59
36932;BME280;22847;42.654;23.370;2023-11-18T13:06:28;94108.34;;;6.43;63.80
36932;BME280;22847;42.654;23.370;2023-11-18T13:08:54;94085.97;;;6.32;66.59
36932;BME280;22847;42.654;23.370;2023-11-18T13:11:21;94132.09;;;6.57;66.86
36932;BME280;22847;42.654;23.370;2023-11-18T13:13:51;94134.03;;;6.84;66.17
36932;BME280;22847;42.654;23.370;2023-11-18T13:16:17;94093.38;;;6.56;65.00
36932;BME280;22847;42.654;23.370;2023-11-18T13:18:47;94127.56;;;6.50;65.77
36932;BME280;22847;42.654;23.370;2023-11-18T13:21:17;94126.63;;;6.51;70.43
36932;BME280;22847;42.654;23.370;2023-11-18T13:23:48;94122.16;;;6.53;68.08
36932;BME280;22847;42.654;23.370;2023-11-18T13:26:15;94122.25;;;6.42;66.34
36932;BME280;22847;42.654;23.370;2023-11-18T13:28:41;94015.81;;;5.76;68.01